sensor_id;sensor_type;location;lat;lon;timestamp;P1;durP1;ratioP1;P2;durP2;ratioP2
57643;SDS011;43474;46.510;6.686;2022-07-21T00:02:22;17.13;;;13.20;;
57643;SDS011;43474;46.510;6.686;2022-07-21T00:04:47;15.43;;;13.00;;
57643;SDS011;43474;46.510;6.686;2022-07-21T00:07:13;17.58;;;13.15;;
57643;SDS011;43474;46.510;6.686;2022-07-21T00:09:38;16.92;;;13.75;;
57643;SDS011;43474;46.510;6.686;2022-07-21T00:12:04;17.48;;;13.80;;
57643;SDS011;43474;46.510;6.686;2022-07-21T00:14:30;16.20;;;13.70;;
57643;SDS011;43474;46.510;6.686;2022-07-21T00:16:56;14.68;;;12.70;;
57643;SDS011;43474;46.510;6.686;2022-07-21T00:19:21;18.02;;;13.05;;
57643;SDS011;43474;46.510;6.686;2022-07-21T00:21:47;15.63;;;13.00;;
57643;SDS011;43474;46.510;6.686;2022-07-21T00:24:12;16.23;;;12.77;;
57643;SDS011;43474;46.510;6.686;2022-07-21T00:26:38;14.77;;;13.13;;
57643;SDS011;43474;46.510;6.686;2022-07-21T00:29:03;17.38;;;13.75;;
57643;SDS011;43474;46.510;6.686;2022-07-21T00:31:29;15.90;;;12.68;;
57643;SDS011;43474;46.510;6.686;2022-07-21T00:33:54;17.80;;;12.82;;
57643;SDS011;43474;46.510;6.686;2022-07-21T00:36:20;14.10;;;12.50;;
57643;SDS011;43474;46.510;6.686;2022-07-21T00:38:46;16.05;;;13.27;;
57643;SDS011;43474;46.510;6.686;2022-07-21T00:41:13;14.85;;;12.55;;
57643;SDS011;43474;46.510;6.686;2022-07-21T00:43:39;18.38;;;13.50;;
57643;SDS011;43474;46.510;6.686;2022-07-21T00:46:05;15.77;;;12.95;;
57643;SDS011;43474;46.510;6.686;2022-07-21T00:48:30;17.60;;;12.57;;
57643;SDS011;43474;46.510;6.686;2022-07-21T00:50:56;19.73;;;13.13;;
57643;SDS011;43474;46.510;6.686;2022-07-21T00:53:21;18.25;;;13.10;;
57643;SDS011;43474;46.510;6.686;2022-07-21T00:55:47;15.60;;;12.32;;
57643;SDS011;43474;46.510;6.686;2022-07-21T00:58:13;14.93;;;12.43;;
57643;SDS011;43474;46.510;6.686;2022-07-21T01:00:38;17.65;;;12.85;;
57643;SDS011;43474;46.510;6.686;2022-07-21T01:03:04;14.50;;;12.90;;
57643;SDS011;43474;46.510;6.686;2022-07-21T01:05:30;13.93;;;12.07;;
57643;SDS011;43474;46.510;6.686;2022-07-21T01:07:55;15.15;;;12.15;;
57643;SDS011;43474;46.510;6.686;2022-07-21T01:10:23;16.65;;;13.02;;
57643;SDS011;43474;46.510;6.686;2022-07-21T01:12:50;13.70;;;11.88;;
57643;SDS011;43474;46.510;6.686;2022-07-21T01:15:17;14.32;;;11.40;;
57643;SDS011;43474;46.510;6.686;2022-07-21T01:17:43;14.48;;;11.95;;
57643;SDS011;43474;46.510;6.686;2022-07-21T01:20:11;12.68;;;11.43;;
57643;SDS011;43474;46.510;6.686;2022-07-21T01:22:41;16.70;;;12.23;;
57643;SDS011;43474;46.510;6.686;2022-07-21T01:25:08;13.85;;;12.23;;
57643;SDS011;43474;46.510;6.686;2022-07-21T01:27:34;17.10;;;12.85;;
57643;SDS011;43474;46.510;6.686;2022-07-21T01:30:00;16.10;;;12.20;;
57643;SDS011;43474;46.510;6.686;2022-07-21T01:32:26;16.38;;;12.80;;
57643;SDS011;43474;46.510;6.686;2022-07-21T01:34:52;15.85;;;12.13;;
57643;SDS011;43474;46.510;6.686;2022-07-21T01:37:21;15.68;;;12.15;;
57643;SDS011;43474;46.510;6.686;2022-07-21T01:39:49;15.47;;;11.60;;
57643;SDS011;43474;46.510;6.686;2022-07-21T01:42:33;15.25;;;12.75;;
57643;SDS011;43474;46.510;6.686;2022-07-21T01:44:59;14.32;;;12.15;;
57643;SDS011;43474;46.510;6.686;2022-07-21T01:47:24;14.95;;;12.10;;
57643;SDS011;43474;46.510;6.686;2022-07-21T01:49:50;15.75;;;12.70;;
57643;SDS011;43474;46.510;6.686;2022-07-21T01:52:15;17.90;;;12.88;;
57643;SDS011;43474;46.510;6.686;2022-07-21T01:54:41;17.35;;;12.55;;
57643;SDS011;43474;46.510;6.686;2022-07-21T01:57:07;17.92;;;13.18;;
57643;SDS011;43474;46.510;6.686;2022-07-21T01:59:32;14.52;;;12.95;;
57643;SDS011;43474;46.510;6.686;2022-07-21T02:01:57;17.58;;;13.35;;
57643;SDS011;43474;46.510;6.686;2022-07-21T02:04:23;14.43;;;12.85;;
57643;SDS011;43474;46.510;6.686;2022-07-21T02:06:49;14.32;;;12.32;;
57643;SDS011;43474;46.510;6.686;2022-07-21T02:09:14;14.23;;;12.10;;
57643;SDS011;43474;46.510;6.686;2022-07-21T02:11:40;14.05;;;12.20;;
57643;SDS011;43474;46.510;6.686;2022-07-21T02:14:05;16.50;;;11.98;;
57643;SDS011;43474;46.510;6.686;2022-07-21T02:16:31;15.15;;;12.18;;
57643;SDS011;43474;46.510;6.686;2022-07-21T02:18:57;17.38;;;11.65;;
57643;SDS011;43474;46.510;6.686;2022-07-21T02:21:22;15.20;;;11.32;;
57643;SDS011;43474;46.510;6.686;2022-07-21T02:23:48;15.90;;;10.25;;
57643;SDS011;43474;46.510;6.686;2022-07-21T02:26:13;11.98;;;10.27;;
57643;SDS011;43474;46.510;6.686;2022-07-21T02:28:39;13.80;;;10.32;;
57643;SDS011;43474;46.510;6.686;2022-07-21T02:31:05;11.88;;;9.75;;
57643;SDS011;43474;46.510;6.686;2022-07-21T02:33:32;14.05;;;10.05;;
57643;SDS011;43474;46.510;6.686;2022-07-21T02:35:58;12.27;;;10.98;;
57643;SDS011;43474;46.510;6.686;2022-07-21T02:38:23;16.83;;;9.82;;
57643;SDS011;43474;46.510;6.686;2022-07-21T02:40:49;12.75;;;10.15;;
57643;SDS011;43474;46.510;6.686;2022-07-21T02:43:14;14.35;;;10.48;;
57643;SDS011;43474;46.510;6.686;2022-07-21T02:45:40;12.68;;;9.57;;
57643;SDS011;43474;46.510;6.686;2022-07-21T02:48:08;12.30;;;9.52;;
57643;SDS011;43474;46.510;6.686;2022-07-21T02:50:35;16.75;;;9.85;;
57643;SDS011;43474;46.510;6.686;2022-07-21T02:53:03;14.13;;;9.98;;
57643;SDS011;43474;46.510;6.686;2022-07-21T02:55:30;15.45;;;9.27;;
57643;SDS011;43474;46.510;6.686;2022-07-21T02:58:06;9.90;;;8.85;;
57643;SDS011;43474;46.510;6.686;2022-07-21T03:00:32;11.93;;;9.18;;
57643;SDS011;43474;46.510;6.686;2022-07-21T03:02:58;11.07;;;8.75;;
57643;SDS011;43474;46.510;6.686;2022-07-21T03:05:24;13.00;;;8.93;;
57643;SDS011;43474;46.510;6.686;2022-07-21T03:07:49;13.38;;;9.18;;
57643;SDS011;43474;46.510;6.686;2022-07-21T03:10:15;9.52;;;8.40;;
57643;SDS011;43474;46.510;6.686;2022-07-21T03:12:40;12.52;;;8.40;;
57643;SDS011;43474;46.510;6.686;2022-07-21T03:15:06;10.80;;;8.55;;
57643;SDS011;43474;46.510;6.686;2022-07-21T03:17:32;10.70;;;8.00;;
57643;SDS011;43474;46.510;6.686;2022-07-21T03:19:57;11.27;;;8.32;;
57643;SDS011;43474;46.510;6.686;2022-07-21T03:22:23;9.25;;;8.02;;
57643;SDS011;43474;46.510;6.686;2022-07-21T03:24:48;12.23;;;8.30;;
57643;SDS011;43474;46.510;6.686;2022-07-21T03:27:16;11.48;;;8.25;;
57643;SDS011;43474;46.510;6.686;2022-07-21T03:29:42;11.88;;;8.05;;
57643;SDS011;43474;46.510;6.686;2022-07-21T03:32:08;11.93;;;8.85;;
57643;SDS011;43474;46.510;6.686;2022-07-21T03:34:33;10.25;;;8.30;;
57643;SDS011;43474;46.510;6.686;2022-07-21T03:36:59;11.00;;;9.50;;
57643;SDS011;43474;46.510;6.686;2022-07-21T03:39:24;11.90;;;9.00;;
57643;SDS011;43474;46.510;6.686;2022-07-21T03:41:49;10.85;;;8.85;;
57643;SDS011;43474;46.510;6.686;2022-07-21T03:44:15;11.73;;;9.10;;
57643;SDS011;43474;46.510;6.686;2022-07-21T03:46:40;13.15;;;10.07;;
57643;SDS011;43474;46.510;6.686;2022-07-21T03:49:06;16.63;;;10.50;;
57643;SDS011;43474;46.510;6.686;2022-07-21T03:51:33;16.77;;;10.80;;
57643;SDS011;43474;46.510;6.686;2022-07-21T03:53:59;14.80;;;10.68;;
57643;SDS011;43474;46.510;6.686;2022-07-21T03:56:27;16.27;;;11.15;;
57643;SDS011;43474;46.510;6.686;2022-07-21T03:58:54;12.13;;;10.43;;
57643;SDS011;43474;46.510;6.686;2022-07-21T04:01:19;13.85;;;9.93;;
57643;SDS011;43474;46.510;6.686;2022-07-21T04:03:44;12.07;;;10.27;;
57643;SDS011;43474;46.510;6.686;2022-07-21T04:06:10;10.95;;;8.48;;
57643;SDS011;43474;46.510;6.686;2022-07-21T04:08:39;12.35;;;10.23;;
57643;SDS011;43474;46.510;6.686;2022-07-21T04:11:04;15.90;;;10.50;;
57643;SDS011;43474;46.510;6.686;2022-07-21T04:13:30;15.20;;;10.80;;
57643;SDS011;43474;46.510;6.686;2022-07-21T04:15:56;12.93;;;10.55;;
57643;SDS011;43474;46.510;6.686;2022-07-21T04:18:21;14.63;;;10.93;;
57643;SDS011;43474;46.510;6.686;2022-07-21T04:20:47;14.40;;;10.15;;
57643;SDS011;43474;46.510;6.686;2022-07-21T04:23:12;13.70;;;11.20;;
57643;SDS011;43474;46.510;6.686;2022-07-21T04:25:38;14.23;;;10.30;;
57643;SDS011;43474;46.510;6.686;2022-07-21T04:28:04;17.95;;;9.80;;
57643;SDS011;43474;46.510;6.686;2022-07-21T04:30:30;12.15;;;9.68;;
57643;SDS011;43474;46.510;6.686;2022-07-21T04:32:56;12.60;;;10.68;;
57643;SDS011;43474;46.510;6.686;2022-07-21T04:35:21;11.75;;;10.43;;
57643;SDS011;43474;46.510;6.686;2022-07-21T04:37:47;15.35;;;10.90;;
57643;SDS011;43474;46.510;6.686;2022-07-21T04:40:13;14.65;;;10.55;;
57643;SDS011;43474;46.510;6.686;2022-07-21T04:42:40;14.68;;;10.57;;
57643;SDS011;43474;46.510;6.686;2022-07-21T04:45:06;11.52;;;9.43;;
57643;SDS011;43474;46.510;6.686;2022-07-21T04:47:36;13.88;;;10.10;;
57643;SDS011;43474;46.510;6.686;2022-07-21T04:50:08;12.55;;;9.38;;
57643;SDS011;43474;46.510;6.686;2022-07-21T04:52:34;12.13;;;9.95;;
57643;SDS011;43474;46.510;6.686;2022-07-21T04:54:59;13.55;;;9.93;;
57643;SDS011;43474;46.510;6.686;2022-07-21T04:57:25;13.73;;;9.70;;
57643;SDS011;43474;46.510;6.686;2022-07-21T04:59:50;12.50;;;9.57;;
57643;SDS011;43474;46.510;6.686;2022-07-21T05:02:16;12.15;;;9.20;;
57643;SDS011;43474;46.510;6.686;2022-07-21T05:04:41;11.40;;;9.55;;
57643;SDS011;43474;46.510;6.686;2022-07-21T05:07:07;16.10;;;9.90;;
57643;SDS011;43474;46.510;6.686;2022-07-21T05:09:32;10.88;;;8.50;;
57643;SDS011;43474;46.510;6.686;2022-07-21T05:11:58;12.85;;;9.48;;
57643;SDS011;43474;46.510;6.686;2022-07-21T05:14:24;11.75;;;8.98;;
57643;SDS011;43474;46.510;6.686;2022-07-21T05:16:49;11.93;;;9.32;;
57643;SDS011;43474;46.510;6.686;2022-07-21T05:19:15;11.77;;;8.43;;
57643;SDS011;43474;46.510;6.686;2022-07-21T05:21:40;13.55;;;9.38;;
57643;SDS011;43474;46.510;6.686;2022-07-21T05:24:06;9.93;;;7.78;;
57643;SDS011;43474;46.510;6.686;2022-07-21T05:26:31;9.48;;;6.63;;
57643;SDS011;43474;46.510;6.686;2022-07-21T05:28:57;9.30;;;6.22;;
57643;SDS011;43474;46.510;6.686;2022-07-21T05:31:22;8.55;;;6.10;;
57643;SDS011;43474;46.510;6.686;2022-07-21T05:33:48;7.65;;;5.57;;
57643;SDS011;43474;46.510;6.686;2022-07-21T05:36:13;7.25;;;5.75;;
57643;SDS011;43474;46.510;6.686;2022-07-21T05:38:39;9.80;;;5.82;;
57643;SDS011;43474;46.510;6.686;2022-07-21T05:41:04;7.30;;;5.40;;
57643;SDS011;43474;46.510;6.686;2022-07-21T05:43:30;8.27;;;5.60;;
57643;SDS011;43474;46.510;6.686;2022-07-21T05:45:56;8.85;;;6.03;;
57643;SDS011;43474;46.510;6.686;2022-07-21T05:48:22;9.27;;;5.95;;
57643;SDS011;43474;46.510;6.686;2022-07-21T05:50:47;8.48;;;5.78;;
57643;SDS011;43474;46.510;6.686;2022-07-21T05:53:13;9.45;;;6.32;;
57643;SDS011;43474;46.510;6.686;2022-07-21T05:55:38;7.35;;;5.38;;
57643;SDS011;43474;46.510;6.686;2022-07-21T05:58:04;8.80;;;6.03;;
57643;SDS011;43474;46.510;6.686;2022-07-21T06:00:29;9.30;;;5.88;;
57643;SDS011;43474;46.510;6.686;2022-07-21T06:02:55;8.18;;;5.82;;
57643;SDS011;43474;46.510;6.686;2022-07-21T06:05:20;7.90;;;5.32;;
57643;SDS011;43474;46.510;6.686;2022-07-21T06:07:46;10.73;;;5.85;;
57643;SDS011;43474;46.510;6.686;2022-07-21T06:10:13;7.70;;;5.13;;
57643;SDS011;43474;46.510;6.686;2022-07-21T06:12:39;6.88;;;5.20;;
57643;SDS011;43474;46.510;6.686;2022-07-21T06:15:05;5.93;;;5.32;;
57643;SDS011;43474;46.510;6.686;2022-07-21T06:17:37;7.53;;;5.25;;
57643;SDS011;43474;46.510;6.686;2022-07-21T06:20:04;6.20;;;5.18;;
57643;SDS011;43474;46.510;6.686;2022-07-21T06:22:32;7.10;;;5.18;;
57643;SDS011;43474;46.510;6.686;2022-07-21T06:24:57;5.93;;;4.70;;
57643;SDS011;43474;46.510;6.686;2022-07-21T06:27:23;6.22;;;4.93;;
57643;SDS011;43474;46.510;6.686;2022-07-21T06:29:48;6.32;;;5.00;;
57643;SDS011;43474;46.510;6.686;2022-07-21T06:32:14;7.63;;;5.13;;
57643;SDS011;43474;46.510;6.686;2022-07-21T06:34:39;6.82;;;5.03;;
57643;SDS011;43474;46.510;6.686;2022-07-21T06:37:05;7.53;;;5.00;;
57643;SDS011;43474;46.510;6.686;2022-07-21T06:39:30;5.80;;;4.35;;
57643;SDS011;43474;46.510;6.686;2022-07-21T06:41:56;6.32;;;4.60;;
57643;SDS011;43474;46.510;6.686;2022-07-21T06:44:22;5.75;;;4.35;;
57643;SDS011;43474;46.510;6.686;2022-07-21T06:46:50;6.07;;;4.57;;
57643;SDS011;43474;46.510;6.686;2022-07-21T06:49:15;6.72;;;5.15;;
57643;SDS011;43474;46.510;6.686;2022-07-21T06:51:41;5.13;;;4.18;;
57643;SDS011;43474;46.510;6.686;2022-07-21T06:54:07;6.40;;;4.90;;
57643;SDS011;43474;46.510;6.686;2022-07-21T06:56:32;7.10;;;4.50;;
57643;SDS011;43474;46.510;6.686;2022-07-21T06:58:58;5.35;;;4.60;;
57643;SDS011;43474;46.510;6.686;2022-07-21T07:01:23;4.97;;;4.32;;
57643;SDS011;43474;46.510;6.686;2022-07-21T07:03:49;5.25;;;4.75;;
57643;SDS011;43474;46.510;6.686;2022-07-21T07:06:14;5.93;;;4.05;;
57643;SDS011;43474;46.510;6.686;2022-07-21T07:08:40;7.22;;;4.47;;
57643;SDS011;43474;46.510;6.686;2022-07-21T07:11:05;5.38;;;4.30;;
57643;SDS011;43474;46.510;6.686;2022-07-21T07:13:31;5.78;;;4.65;;
57643;SDS011;43474;46.510;6.686;2022-07-21T07:15:57;9.25;;;5.20;;
57643;SDS011;43474;46.510;6.686;2022-07-21T07:18:22;5.80;;;4.47;;
57643;SDS011;43474;46.510;6.686;2022-07-21T07:20:49;6.20;;;4.88;;
57643;SDS011;43474;46.510;6.686;2022-07-21T07:23:15;5.05;;;4.55;;
57643;SDS011;43474;46.510;6.686;2022-07-21T07:25:41;6.50;;;5.20;;
57643;SDS011;43474;46.510;6.686;2022-07-21T07:28:06;6.70;;;6.07;;
57643;SDS011;43474;46.510;6.686;2022-07-21T07:30:33;6.70;;;5.85;;
57643;SDS011;43474;46.510;6.686;2022-07-21T07:32:59;6.78;;;5.63;;
57643;SDS011;43474;46.510;6.686;2022-07-21T07:35:25;9.23;;;6.07;;
57643;SDS011;43474;46.510;6.686;2022-07-21T07:37:51;6.18;;;5.57;;
57643;SDS011;43474;46.510;6.686;2022-07-21T07:40:17;6.28;;;5.25;;
57643;SDS011;43474;46.510;6.686;2022-07-21T07:42:45;6.05;;;5.55;;
57643;SDS011;43474;46.510;6.686;2022-07-21T07:45:12;6.68;;;5.63;;
57643;SDS011;43474;46.510;6.686;2022-07-21T07:47:38;5.97;;;5.28;;
57643;SDS011;43474;46.510;6.686;2022-07-21T07:50:05;6.05;;;5.45;;
57643;SDS011;43474;46.510;6.686;2022-07-21T07:52:33;8.85;;;5.28;;
57643;SDS011;43474;46.510;6.686;2022-07-21T07:54:59;6.72;;;5.13;;
57643;SDS011;43474;46.510;6.686;2022-07-21T07:57:25;8.80;;;5.88;;
57643;SDS011;43474;46.510;6.686;2022-07-21T07:59:50;8.25;;;5.22;;
57643;SDS011;43474;46.510;6.686;2022-07-21T08:02:16;7.50;;;5.93;;
57643;SDS011;43474;46.510;6.686;2022-07-21T08:04:41;7.53;;;6.80;;
57643;SDS011;43474;46.510;6.686;2022-07-21T08:07:07;7.45;;;6.72;;
57643;SDS011;43474;46.510;6.686;2022-07-21T08:09:33;8.18;;;6.78;;
57643;SDS011;43474;46.510;6.686;2022-07-21T08:11:59;8.10;;;7.28;;
57643;SDS011;43474;46.510;6.686;2022-07-21T08:14:24;8.90;;;7.60;;
57643;SDS011;43474;46.510;6.686;2022-07-21T08:16:49;8.48;;;6.95;;
57643;SDS011;43474;46.510;6.686;2022-07-21T08:19:15;7.90;;;7.07;;
57643;SDS011;43474;46.510;6.686;2022-07-21T08:21:40;9.02;;;7.00;;
57643;SDS011;43474;46.510;6.686;2022-07-21T08:24:06;8.48;;;7.53;;
57643;SDS011;43474;46.510;6.686;2022-07-21T08:26:33;9.75;;;7.95;;
57643;SDS011;43474;46.510;6.686;2022-07-21T08:28:59;8.55;;;7.63;;
57643;SDS011;43474;46.510;6.686;2022-07-21T08:31:25;12.68;;;7.75;;
57643;SDS011;43474;46.510;6.686;2022-07-21T08:33:51;10.73;;;7.53;;
57643;SDS011;43474;46.510;6.686;2022-07-21T08:36:17;8.40;;;7.47;;
57643;SDS011;43474;46.510;6.686;2022-07-21T08:38:43;7.88;;;7.07;;
57643;SDS011;43474;46.510;6.686;2022-07-21T08:41:09;8.90;;;7.43;;
57643;SDS011;43474;46.510;6.686;2022-07-21T08:43:35;8.32;;;6.97;;
57643;SDS011;43474;46.510;6.686;2022-07-21T08:46:01;8.45;;;6.90;;
57643;SDS011;43474;46.510;6.686;2022-07-21T08:48:27;9.27;;;7.10;;
57643;SDS011;43474;46.510;6.686;2022-07-21T08:50:54;9.57;;;7.35;;
57643;SDS011;43474;46.510;6.686;2022-07-21T08:53:20;11.02;;;8.02;;
57643;SDS011;43474;46.510;6.686;2022-07-21T08:55:46;9.63;;;8.00;;
57643;SDS011;43474;46.510;6.686;2022-07-21T08:58:12;8.40;;;6.88;;
57643;SDS011;43474;46.510;6.686;2022-07-21T09:00:39;8.18;;;6.70;;
57643;SDS011;43474;46.510;6.686;2022-07-21T09:05:43;7.65;;;6.80;;
57643;SDS011;43474;46.510;6.686;2022-07-21T09:08:28;7.50;;;6.68;;
57643;SDS011;43474;46.510;6.686;2022-07-21T09:11:06;9.45;;;7.65;;
57643;SDS011;43474;46.510;6.686;2022-07-21T09:13:39;8.63;;;7.57;;
57643;SDS011;43474;46.510;6.686;2022-07-21T09:16:05;10.70;;;6.70;;
57643;SDS011;43474;46.510;6.686;2022-07-21T09:18:31;8.00;;;7.20;;
57643;SDS011;43474;46.510;6.686;2022-07-21T09:20:57;9.18;;;7.22;;
57643;SDS011;43474;46.510;6.686;2022-07-21T09:23:27;7.43;;;6.70;;
57643;SDS011;43474;46.510;6.686;2022-07-21T09:25:57;9.13;;;7.50;;
57643;SDS011;43474;46.510;6.686;2022-07-21T09:28:26;8.82;;;6.68;;
57643;SDS011;43474;46.510;6.686;2022-07-21T09:31:00;8.43;;;7.55;;
57643;SDS011;43474;46.510;6.686;2022-07-21T09:33:40;7.60;;;6.70;;
57643;SDS011;43474;46.510;6.686;2022-07-21T09:38:50;7.75;;;7.03;;
57643;SDS011;43474;46.510;6.686;2022-07-21T09:41:20;7.15;;;6.45;;
57643;SDS011;43474;46.510;6.686;2022-07-21T09:43:49;10.43;;;6.82;;
57643;SDS011;43474;46.510;6.686;2022-07-21T09:46:17;7.32;;;6.50;;
57643;SDS011;43474;46.510;6.686;2022-07-21T09:48:51;7.68;;;6.65;;
57643;SDS011;43474;46.510;6.686;2022-07-21T09:51:20;9.27;;;6.40;;
57643;SDS011;43474;46.510;6.686;2022-07-21T09:56:36;7.43;;;6.70;;
57643;SDS011;43474;46.510;6.686;2022-07-21T09:59:03;8.05;;;5.60;;
57643;SDS011;43474;46.510;6.686;2022-07-21T10:01:31;8.13;;;6.38;;
57643;SDS011;43474;46.510;6.686;2022-07-21T10:03:58;8.40;;;6.60;;
57643;SDS011;43474;46.510;6.686;2022-07-21T10:06:32;8.15;;;5.88;;
57643;SDS011;43474;46.510;6.686;2022-07-21T10:09:00;8.88;;;6.53;;
57643;SDS011;43474;46.510;6.686;2022-07-21T10:11:28;7.18;;;6.30;;
57643;SDS011;43474;46.510;6.686;2022-07-21T10:13:54;8.35;;;6.15;;
57643;SDS011;43474;46.510;6.686;2022-07-21T10:16:20;8.07;;;6.35;;
57643;SDS011;43474;46.510;6.686;2022-07-21T10:21:23;8.93;;;6.47;;
57643;SDS011;43474;46.510;6.686;2022-07-21T10:23:55;8.15;;;6.43;;
57643;SDS011;43474;46.510;6.686;2022-07-21T10:26:21;7.30;;;6.45;;
57643;SDS011;43474;46.510;6.686;2022-07-21T10:28:47;6.47;;;5.88;;
57643;SDS011;43474;46.510;6.686;2022-07-21T10:31:13;6.53;;;5.82;;
57643;SDS011;43474;46.510;6.686;2022-07-21T10:36:10;11.05;;;5.93;;
57643;SDS011;43474;46.510;6.686;2022-07-21T10:38:37;8.43;;;6.38;;
57643;SDS011;43474;46.510;6.686;2022-07-21T10:41:04;6.60;;;5.95;;
57643;SDS011;43474;46.510;6.686;2022-07-21T10:45:56;10.27;;;6.30;;
57643;SDS011;43474;46.510;6.686;2022-07-21T10:51:08;8.02;;;5.72;;
57643;SDS011;43474;46.510;6.686;2022-07-21T10:53:35;6.47;;;5.85;;
57643;SDS011;43474;46.510;6.686;2022-07-21T10:56:02;6.55;;;5.95;;
57643;SDS011;43474;46.510;6.686;2022-07-21T10:58:30;6.95;;;6.22;;
57643;SDS011;43474;46.510;6.686;2022-07-21T11:00:57;7.30;;;5.85;;
57643;SDS011;43474;46.510;6.686;2022-07-21T11:03:32;7.50;;;6.20;;
57643;SDS011;43474;46.510;6.686;2022-07-21T11:08:32;6.63;;;6.00;;
57643;SDS011;43474;46.510;6.686;2022-07-21T11:19:29;7.65;;;6.50;;
57643;SDS011;43474;46.510;6.686;2022-07-21T11:21:56;7.63;;;6.35;;
57643;SDS011;43474;46.510;6.686;2022-07-21T11:24:23;7.90;;;6.88;;
57643;SDS011;43474;46.510;6.686;2022-07-21T11:26:56;8.07;;;6.78;;
57643;SDS011;43474;46.510;6.686;2022-07-21T11:29:25;8.63;;;7.00;;
57643;SDS011;43474;46.510;6.686;2022-07-21T11:31:51;9.23;;;7.10;;
57643;SDS011;43474;46.510;6.686;2022-07-21T11:34:17;8.88;;;7.13;;
57643;SDS011;43474;46.510;6.686;2022-07-21T11:36:43;8.98;;;6.95;;
57643;SDS011;43474;46.510;6.686;2022-07-21T11:39:11;8.38;;;7.38;;
57643;SDS011;43474;46.510;6.686;2022-07-21T11:41:39;7.30;;;6.60;;
57643;SDS011;43474;46.510;6.686;2022-07-21T11:44:07;9.10;;;6.97;;
57643;SDS011;43474;46.510;6.686;2022-07-21T11:49:19;7.80;;;6.97;;
57643;SDS011;43474;46.510;6.686;2022-07-21T11:51:52;9.68;;;7.53;;
57643;SDS011;43474;46.510;6.686;2022-07-21T11:54:23;7.53;;;6.82;;
57643;SDS011;43474;46.510;6.686;2022-07-21T11:56:52;8.05;;;6.82;;
57643;SDS011;43474;46.510;6.686;2022-07-21T11:59:18;7.80;;;6.32;;
57643;SDS011;43474;46.510;6.686;2022-07-21T12:01:51;11.40;;;7.43;;
57643;SDS011;43474;46.510;6.686;2022-07-21T12:04:35;8.50;;;7.47;;
57643;SDS011;43474;46.510;6.686;2022-07-21T12:07:03;7.72;;;6.85;;
57643;SDS011;43474;46.510;6.686;2022-07-21T12:09:32;8.98;;;7.00;;
57643;SDS011;43474;46.510;6.686;2022-07-21T12:11:58;7.75;;;7.00;;
57643;SDS011;43474;46.510;6.686;2022-07-21T12:17:04;8.30;;;7.30;;
57643;SDS011;43474;46.510;6.686;2022-07-21T12:19:30;8.48;;;6.80;;
57643;SDS011;43474;46.510;6.686;2022-07-21T12:21:56;6.70;;;6.05;;
57643;SDS011;43474;46.510;6.686;2022-07-21T12:24:21;7.82;;;6.40;;
57643;SDS011;43474;46.510;6.686;2022-07-21T12:26:47;8.45;;;7.07;;
57643;SDS011;43474;46.510;6.686;2022-07-21T12:29:25;8.05;;;7.25;;
57643;SDS011;43474;46.510;6.686;2022-07-21T12:31:52;7.25;;;6.55;;
57643;SDS011;43474;46.510;6.686;2022-07-21T12:34:18;7.28;;;6.43;;
57643;SDS011;43474;46.510;6.686;2022-07-21T12:36:44;7.43;;;5.82;;
57643;SDS011;43474;46.510;6.686;2022-07-21T12:42:07;6.95;;;6.00;;
57643;SDS011;43474;46.510;6.686;2022-07-21T12:44:35;7.50;;;5.38;;
57643;SDS011;43474;46.510;6.686;2022-07-21T12:47:11;5.90;;;5.22;;
57643;SDS011;43474;46.510;6.686;2022-07-21T12:52:31;7.43;;;5.70;;
57643;SDS011;43474;46.510;6.686;2022-07-21T12:54:57;6.15;;;5.50;;
57643;SDS011;43474;46.510;6.686;2022-07-21T12:57:27;6.38;;;5.07;;
57643;SDS011;43474;46.510;6.686;2022-07-21T12:59:55;4.97;;;4.55;;
57643;SDS011;43474;46.510;6.686;2022-07-21T13:02:22;8.35;;;5.10;;
57643;SDS011;43474;46.510;6.686;2022-07-21T13:04:48;8.43;;;5.45;;
57643;SDS011;43474;46.510;6.686;2022-07-21T13:07:14;6.18;;;4.45;;
57643;SDS011;43474;46.510;6.686;2022-07-21T13:09:40;5.32;;;4.82;;
57643;SDS011;43474;46.510;6.686;2022-07-21T13:12:05;7.78;;;5.03;;
57643;SDS011;43474;46.510;6.686;2022-07-21T13:14:31;5.47;;;4.95;;
57643;SDS011;43474;46.510;6.686;2022-07-21T13:16:57;5.60;;;5.03;;
57643;SDS011;43474;46.510;6.686;2022-07-21T13:19:23;5.53;;;4.95;;
57643;SDS011;43474;46.510;6.686;2022-07-21T13:21:49;6.00;;;4.78;;
57643;SDS011;43474;46.510;6.686;2022-07-21T13:24:15;6.15;;;4.60;;
57643;SDS011;43474;46.510;6.686;2022-07-21T13:26:41;5.60;;;5.05;;
57643;SDS011;43474;46.510;6.686;2022-07-21T13:29:06;6.80;;;4.57;;
57643;SDS011;43474;46.510;6.686;2022-07-21T13:31:33;6.63;;;5.30;;
57643;SDS011;43474;46.510;6.686;2022-07-21T13:34:02;6.57;;;5.28;;
57643;SDS011;43474;46.510;6.686;2022-07-21T13:36:33;5.50;;;5.00;;
57643;SDS011;43474;46.510;6.686;2022-07-21T13:38:59;6.32;;;5.30;;
57643;SDS011;43474;46.510;6.686;2022-07-21T13:41:25;6.07;;;4.93;;
57643;SDS011;43474;46.510;6.686;2022-07-21T13:43:51;6.13;;;4.43;;
57643;SDS011;43474;46.510;6.686;2022-07-21T13:46:17;5.45;;;4.82;;
57643;SDS011;43474;46.510;6.686;2022-07-21T13:48:43;7.53;;;5.10;;
57643;SDS011;43474;46.510;6.686;2022-07-21T13:51:14;6.70;;;5.07;;
57643;SDS011;43474;46.510;6.686;2022-07-21T13:53:42;5.80;;;4.97;;
57643;SDS011;43474;46.510;6.686;2022-07-21T13:56:09;5.60;;;4.72;;
57643;SDS011;43474;46.510;6.686;2022-07-21T13:58:37;7.45;;;5.00;;
57643;SDS011;43474;46.510;6.686;2022-07-21T14:01:03;6.57;;;4.93;;
57643;SDS011;43474;46.510;6.686;2022-07-21T14:03:29;5.32;;;4.82;;
57643;SDS011;43474;46.510;6.686;2022-07-21T14:05:54;5.07;;;4.55;;
57643;SDS011;43474;46.510;6.686;2022-07-21T14:08:20;4.93;;;4.53;;
57643;SDS011;43474;46.510;6.686;2022-07-21T14:10:45;5.72;;;4.95;;
57643;SDS011;43474;46.510;6.686;2022-07-21T14:13:11;5.18;;;4.68;;
57643;SDS011;43474;46.510;6.686;2022-07-21T14:15:37;5.45;;;4.53;;
57643;SDS011;43474;46.510;6.686;2022-07-21T14:18:02;7.65;;;5.00;;
57643;SDS011;43474;46.510;6.686;2022-07-21T14:20:28;5.72;;;4.90;;
57643;SDS011;43474;46.510;6.686;2022-07-21T14:22:54;5.40;;;4.90;;
57643;SDS011;43474;46.510;6.686;2022-07-21T14:25:19;6.10;;;4.90;;
57643;SDS011;43474;46.510;6.686;2022-07-21T14:27:46;5.65;;;5.05;;
57643;SDS011;43474;46.510;6.686;2022-07-21T14:30:12;5.25;;;4.40;;
57643;SDS011;43474;46.510;6.686;2022-07-21T14:32:38;6.18;;;5.35;;
57643;SDS011;43474;46.510;6.686;2022-07-21T14:35:03;6.97;;;5.00;;
57643;SDS011;43474;46.510;6.686;2022-07-21T14:37:29;5.07;;;4.60;;
57643;SDS011;43474;46.510;6.686;2022-07-21T14:39:55;7.00;;;4.88;;
57643;SDS011;43474;46.510;6.686;2022-07-21T14:42:20;6.10;;;4.82;;
57643;SDS011;43474;46.510;6.686;2022-07-21T14:44:48;6.10;;;5.50;;
57643;SDS011;43474;46.510;6.686;2022-07-21T14:47:14;5.40;;;4.60;;
57643;SDS011;43474;46.510;6.686;2022-07-21T14:49:39;6.55;;;4.65;;
57643;SDS011;43474;46.510;6.686;2022-07-21T14:52:05;5.20;;;4.72;;
57643;SDS011;43474;46.510;6.686;2022-07-21T14:54:31;4.93;;;4.43;;
57643;SDS011;43474;46.510;6.686;2022-07-21T14:56:56;5.40;;;4.80;;
57643;SDS011;43474;46.510;6.686;2022-07-21T14:59:22;6.15;;;4.70;;
57643;SDS011;43474;46.510;6.686;2022-07-21T15:01:48;5.22;;;4.50;;
57643;SDS011;43474;46.510;6.686;2022-07-21T15:04:13;7.28;;;4.85;;
57643;SDS011;43474;46.510;6.686;2022-07-21T15:06:39;6.75;;;4.25;;
57643;SDS011;43474;46.510;6.686;2022-07-21T15:09:04;5.22;;;4.72;;
57643;SDS011;43474;46.510;6.686;2022-07-21T15:11:29;7.45;;;5.13;;
57643;SDS011;43474;46.510;6.686;2022-07-21T15:13:55;5.38;;;4.88;;
57643;SDS011;43474;46.510;6.686;2022-07-21T15:16:21;6.72;;;5.68;;